sensor_id;sensor_type;location;lat;lon;timestamp;temperature;humidity
74540;SHT31;66042;51.090;-115.340;2023-03-12T00:01:13;-1.20;41.97
74540;SHT31;66042;51.090;-115.340;2023-03-12T00:03:45;-1.32;42.00
74540;SHT31;66042;51.090;-115.340;2023-03-12T00:06:13;-1.43;42.42
74540;SHT31;66042;51.090;-115.340;2023-03-12T00:08:41;-1.52;42.61
74540;SHT31;66042;51.090;-115.340;2023-03-12T00:11:10;-1.63;42.57
74540;SHT31;66042;51.090;-115.340;2023-03-12T00:13:40;-1.73;42.94
74540;SHT31;66042;51.090;-115.340;2023-03-12T00:16:08;-1.84;43.24
74540;SHT31;66042;51.090;-115.340;2023-03-12T00:18:40;-1.94;43.36
74540;SHT31;66042;51.090;-115.340;2023-03-12T00:21:08;-2.00;43.72
74540;SHT31;66042;51.090;-115.340;2023-03-12T00:23:37;-2.02;43.99
74540;SHT31;66042;51.090;-115.340;2023-03-12T00:26:08;-2.00;43.96
74540;SHT31;66042;51.090;-115.340;2023-03-12T00:28:38;-1.98;43.84
74540;SHT31;66042;51.090;-115.340;2023-03-12T00:31:23;-1.99;44.05
74540;SHT31;66042;51.090;-115.340;2023-03-12T00:33:53;-2.06;44.07
74540;SHT31;66042;51.090;-115.340;2023-03-12T00:36:22;-2.16;43.64
74540;SHT31;66042;51.090;-115.340;2023-03-12T00:38:51;-2.27;43.80
74540;SHT31;66042;51.090;-115.340;2023-03-12T00:41:20;-2.37;44.10
74540;SHT31;66042;51.090;-115.340;2023-03-12T00:43:49;-2.47;44.36
74540;SHT31;66042;51.090;-115.340;2023-03-12T00:46:17;-2.57;44.29
74540;SHT31;66042;51.090;-115.340;2023-03-12T00:48:45;-2.66;44.42
74540;SHT31;66042;51.090;-115.340;2023-03-12T00:51:12;-2.76;44.66
74540;SHT31;66042;51.090;-115.340;2023-03-12T00:53:39;-2.89;44.82
74540;SHT31;66042;51.090;-115.340;2023-03-12T00:56:06;-3.00;44.85
74540;SHT31;66042;51.090;-115.340;2023-03-12T00:58:33;-3.09;45.03
74540;SHT31;66042;51.090;-115.340;2023-03-12T01:01:00;-3.18;45.36
74540;SHT31;66042;51.090;-115.340;2023-03-12T01:03:28;-3.33;45.52
74540;SHT31;66042;51.090;-115.340;2023-03-12T01:05:56;-3.43;45.54
74540;SHT31;66042;51.090;-115.340;2023-03-12T01:08:23;-3.55;45.87
74540;SHT31;66042;51.090;-115.340;2023-03-12T01:10:50;-3.63;46.09
74540;SHT31;66042;51.090;-115.340;2023-03-12T01:13:17;-3.72;46.35
74540;SHT31;66042;51.090;-115.340;2023-03-12T01:15:45;-3.81;46.68
74540;SHT31;66042;51.090;-115.340;2023-03-12T01:18:12;-3.89;46.63
74540;SHT31;66042;51.090;-115.340;2023-03-12T01:20:39;-4.04;46.76
74540;SHT31;66042;51.090;-115.340;2023-03-12T01:23:06;-4.13;47.26
74540;SHT31;66042;51.090;-115.340;2023-03-12T01:25:34;-4.22;47.37
74540;SHT31;66042;51.090;-115.340;2023-03-12T01:28:02;-4.32;47.48
74540;SHT31;66042;51.090;-115.340;2023-03-12T01:30:30;-4.45;47.90
74540;SHT31;66042;51.090;-115.340;2023-03-12T01:32:57;-4.45;48.14
74540;SHT31;66042;51.090;-115.340;2023-03-12T01:35:24;-4.46;48.18
74540;SHT31;66042;51.090;-115.340;2023-03-12T01:37:51;-4.48;48.26
74540;SHT31;66042;51.090;-115.340;2023-03-12T01:40:22;-4.48;48.30
74540;SHT31;66042;51.090;-115.340;2023-03-12T01:42:51;-4.55;48.34
74540;SHT31;66042;51.090;-115.340;2023-03-12T01:48:24;-4.60;48.39
74540;SHT31;66042;51.090;-115.340;2023-03-12T01:50:56;-4.61;48.39
74540;SHT31;66042;51.090;-115.340;2023-03-12T01:53:25;-4.58;48.50
74540;SHT31;66042;51.090;-115.340;2023-03-12T01:55:54;-4.58;48.28
74540;SHT31;66042;51.090;-115.340;2023-03-12T01:58:23;-4.62;48.34
74540;SHT31;66042;51.090;-115.340;2023-03-12T02:00:53;-4.73;48.45
74540;SHT31;66042;51.090;-115.340;2023-03-12T02:03:21;-4.77;48.58
74540;SHT31;66042;51.090;-115.340;2023-03-12T02:05:52;-4.81;48.62
74540;SHT31;66042;51.090;-115.340;2023-03-12T02:08:37;-4.84;48.65
74540;SHT31;66042;51.090;-115.340;2023-03-12T02:11:09;-4.86;48.80
74540;SHT31;66042;51.090;-115.340;2023-03-12T02:13:36;-4.88;48.82
74540;SHT31;66042;51.090;-115.340;2023-03-12T02:16:03;-4.99;48.73
74540;SHT31;66042;51.090;-115.340;2023-03-12T02:18:32;-5.07;48.93
74540;SHT31;66042;51.090;-115.340;2023-03-12T02:21:04;-5.22;49.04
74540;SHT31;66042;51.090;-115.340;2023-03-12T02:26:43;-5.41;49.35
74540;SHT31;66042;51.090;-115.340;2023-03-12T02:29:11;-5.58;49.56
74540;SHT31;66042;51.090;-115.340;2023-03-12T02:31:42;-5.64;49.79
74540;SHT31;66042;51.090;-115.340;2023-03-12T02:34:16;-5.79;49.88
74540;SHT31;66042;51.090;-115.340;2023-03-12T02:36:43;-5.86;50.38
74540;SHT31;66042;51.090;-115.340;2023-03-12T02:39:10;-5.91;50.58
74540;SHT31;66042;51.090;-115.340;2023-03-12T02:41:39;-5.94;50.59
74540;SHT31;66042;51.090;-115.340;2023-03-12T02:44:21;-6.02;50.59
74540;SHT31;66042;51.090;-115.340;2023-03-12T02:46:55;-6.14;50.79
74540;SHT31;66042;51.090;-115.340;2023-03-12T02:49:27;-6.13;50.89
74540;SHT31;66042;51.090;-115.340;2023-03-12T02:51:57;-6.16;50.73
74540;SHT31;66042;51.090;-115.340;2023-03-12T02:54:24;-6.20;50.70
74540;SHT31;66042;51.090;-115.340;2023-03-12T02:56:53;-6.22;50.79
74540;SHT31;66042;51.090;-115.340;2023-03-12T02:59:21;-6.22;50.77
74540;SHT31;66042;51.090;-115.340;2023-03-12T03:01:51;-6.22;50.71
74540;SHT31;66042;51.090;-115.340;2023-03-12T03:04:24;-6.28;50.70
74540;SHT31;66042;51.090;-115.340;2023-03-12T03:06:53;-6.30;50.65
74540;SHT31;66042;51.090;-115.340;2023-03-12T03:09:20;-6.32;50.51
74540;SHT31;66042;51.090;-115.340;2023-03-12T03:11:48;-6.35;50.64
74540;SHT31;66042;51.090;-115.340;2023-03-12T03:14:16;-6.39;50.63
74540;SHT31;66042;51.090;-115.340;2023-03-12T03:16:43;-6.39;50.52
74540;SHT31;66042;51.090;-115.340;2023-03-12T03:19:11;-6.43;50.45
74540;SHT31;66042;51.090;-115.340;2023-03-12T03:21:38;-6.48;50.50
74540;SHT31;66042;51.090;-115.340;2023-03-12T03:24:05;-6.50;50.67
74540;SHT31;66042;51.090;-115.340;2023-03-12T03:26:32;-6.54;50.79
74540;SHT31;66042;51.090;-115.340;2023-03-12T03:29:00;-6.66;50.74
74540;SHT31;66042;51.090;-115.340;2023-03-12T03:31:28;-6.72;50.86
74540;SHT31;66042;51.090;-115.340;2023-03-12T03:33:55;-6.79;50.89
74540;SHT31;66042;51.090;-115.340;2023-03-12T03:36:23;-6.78;50.84
74540;SHT31;66042;51.090;-115.340;2023-03-12T03:38:50;-6.78;50.71
74540;SHT31;66042;51.090;-115.340;2023-03-12T03:41:17;-6.84;50.77
74540;SHT31;66042;51.090;-115.340;2023-03-12T03:43:47;-6.86;50.87
74540;SHT31;66042;51.090;-115.340;2023-03-12T03:46:14;-6.84;50.78
74540;SHT31;66042;51.090;-115.340;2023-03-12T03:48:41;-6.87;50.64
74540;SHT31;66042;51.090;-115.340;2023-03-12T03:51:09;-6.90;50.71
74540;SHT31;66042;51.090;-115.340;2023-03-12T03:53:37;-6.95;50.77
74540;SHT31;66042;51.090;-115.340;2023-03-12T03:56:04;-6.97;50.64
74540;SHT31;66042;51.090;-115.340;2023-03-12T03:58:33;-7.00;50.75
74540;SHT31;66042;51.090;-115.340;2023-03-12T04:01:00;-7.05;50.91
74540;SHT31;66042;51.090;-115.340;2023-03-12T04:03:28;-7.09;50.93
74540;SHT31;66042;51.090;-115.340;2023-03-12T04:05:55;-7.14;50.90
74540;SHT31;66042;51.090;-115.340;2023-03-12T04:08:25;-7.18;50.87
74540;SHT31;66042;51.090;-115.340;2023-03-12T04:10:53;-7.27;51.02
74540;SHT31;66042;51.090;-115.340;2023-03-12T04:13:21;-7.27;51.01
74540;SHT31;66042;51.090;-115.340;2023-03-12T04:15:48;-7.34;50.97
74540;SHT31;66042;51.090;-115.340;2023-03-12T04:18:18;-7.40;51.12
74540;SHT31;66042;51.090;-115.340;2023-03-12T04:20:45;-7.44;51.20
74540;SHT31;66042;51.090;-115.340;2023-03-12T04:23:12;-7.49;51.27
74540;SHT31;66042;51.090;-115.340;2023-03-12T04:25:40;-7.56;51.33
74540;SHT31;66042;51.090;-115.340;2023-03-12T04:28:07;-7.63;51.58
74540;SHT31;66042;51.090;-115.340;2023-03-12T04:30:34;-7.64;51.40
74540;SHT31;66042;51.090;-115.340;2023-03-12T04:33:03;-7.68;51.49
74540;SHT31;66042;51.090;-115.340;2023-03-12T04:35:32;-7.72;51.58
74540;SHT31;66042;51.090;-115.340;2023-03-12T04:38:02;-7.72;51.57
74540;SHT31;66042;51.090;-115.340;2023-03-12T04:40:29;-7.76;51.45
74540;SHT31;66042;51.090;-115.340;2023-03-12T04:42:56;-7.82;51.53
74540;SHT31;66042;51.090;-115.340;2023-03-12T04:45:23;-7.91;51.50
74540;SHT31;66042;51.090;-115.340;2023-03-12T04:47:50;-8.02;51.52
74540;SHT31;66042;51.090;-115.340;2023-03-12T04:50:18;-8.04;51.74
74540;SHT31;66042;51.090;-115.340;2023-03-12T04:52:45;-8.05;51.84
74540;SHT31;66042;51.090;-115.340;2023-03-12T04:55:12;-8.06;51.70
74540;SHT31;66042;51.090;-115.340;2023-03-12T04:57:38;-8.12;51.69
74540;SHT31;66042;51.090;-115.340;2023-03-12T05:00:06;-8.15;51.90
74540;SHT31;66042;51.090;-115.340;2023-03-12T05:02:38;-8.18;51.87
74540;SHT31;66042;51.090;-115.340;2023-03-12T05:05:06;-8.25;51.97
74540;SHT31;66042;51.090;-115.340;2023-03-12T05:07:35;-8.35;52.26
74540;SHT31;66042;51.090;-115.340;2023-03-12T05:10:02;-8.36;52.38
74540;SHT31;66042;51.090;-115.340;2023-03-12T05:12:30;-8.37;52.54
74540;SHT31;66042;51.090;-115.340;2023-03-12T05:14:57;-8.41;52.58
74540;SHT31;66042;51.090;-115.340;2023-03-12T05:17:23;-8.47;52.60
74540;SHT31;66042;51.090;-115.340;2023-03-12T05:19:51;-8.51;52.68
74540;SHT31;66042;51.090;-115.340;2023-03-12T05:22:18;-8.57;52.64
74540;SHT31;66042;51.090;-115.340;2023-03-12T05:24:45;-8.61;52.57
74540;SHT31;66042;51.090;-115.340;2023-03-12T05:27:12;-8.65;52.58
74540;SHT31;66042;51.090;-115.340;2023-03-12T05:29:39;-8.66;52.65
74540;SHT31;66042;51.090;-115.340;2023-03-12T05:32:06;-8.67;52.73
74540;SHT31;66042;51.090;-115.340;2023-03-12T05:34:33;-8.69;52.84
74540;SHT31;66042;51.090;-115.340;2023-03-12T05:37:00;-8.72;52.85
74540;SHT31;66042;51.090;-115.340;2023-03-12T05:39:27;-8.82;52.88
74540;SHT31;66042;51.090;-115.340;2023-03-12T05:41:54;-8.86;53.13
74540;SHT31;66042;51.090;-115.340;2023-03-12T05:44:24;-8.85;53.10
74540;SHT31;66042;51.090;-115.340;2023-03-12T05:46:52;-8.83;53.00
74540;SHT31;66042;51.090;-115.340;2023-03-12T05:49:19;-8.86;53.01
74540;SHT31;66042;51.090;-115.340;2023-03-12T05:51:48;-8.85;52.95
74540;SHT31;66042;51.090;-115.340;2023-03-12T05:54:15;-8.84;52.90
74540;SHT31;66042;51.090;-115.340;2023-03-12T05:56:43;-8.87;52.70
74540;SHT31;66042;51.090;-115.340;2023-03-12T05:59:10;-8.95;52.77
74540;SHT31;66042;51.090;-115.340;2023-03-12T06:01:37;-8.97;52.87
74540;SHT31;66042;51.090;-115.340;2023-03-12T06:04:04;-9.02;52.86
74540;SHT31;66042;51.090;-115.340;2023-03-12T06:06:32;-9.07;52.92
74540;SHT31;66042;51.090;-115.340;2023-03-12T06:09:01;-9.07;52.86
74540;SHT31;66042;51.090;-115.340;2023-03-12T06:11:32;-9.07;52.71
74540;SHT31;66042;51.090;-115.340;2023-03-12T06:14:00;-9.11;52.64
74540;SHT31;66042;51.090;-115.340;2023-03-12T06:16:27;-9.13;52.62
74540;SHT31;66042;51.090;-115.340;2023-03-12T06:18:55;-9.14;52.58
74540;SHT31;66042;51.090;-115.340;2023-03-12T06:21:27;-9.19;52.71
74540;SHT31;66042;51.090;-115.340;2023-03-12T06:23:57;-9.23;52.80
74540;SHT31;66042;51.090;-115.340;2023-03-12T06:26:25;-9.25;52.73
74540;SHT31;66042;51.090;-115.340;2023-03-12T06:28:53;-9.32;52.48
74540;SHT31;66042;51.090;-115.340;2023-03-12T06:31:20;-9.44;52.67
74540;SHT31;66042;51.090;-115.340;2023-03-12T06:33:48;-9.44;52.74
74540;SHT31;66042;51.090;-115.340;2023-03-12T06:36:16;-9.43;52.69
74540;SHT31;66042;51.090;-115.340;2023-03-12T06:38:43;-9.43;52.78
74540;SHT31;66042;51.090;-115.340;2023-03-12T06:41:11;-9.47;52.76
74540;SHT31;66042;51.090;-115.340;2023-03-12T06:43:41;-9.52;52.77
74540;SHT31;66042;51.090;-115.340;2023-03-12T06:46:13;-9.56;52.66
74540;SHT31;66042;51.090;-115.340;2023-03-12T06:48:43;-9.60;52.77
74540;SHT31;66042;51.090;-115.340;2023-03-12T06:51:11;-9.65;52.81
74540;SHT31;66042;51.090;-115.340;2023-03-12T06:53:41;-9.75;52.63
74540;SHT31;66042;51.090;-115.340;2023-03-12T06:56:09;-9.78;52.85
74540;SHT31;66042;51.090;-115.340;2023-03-12T06:58:37;-9.76;52.89
74540;SHT31;66042;51.090;-115.340;2023-03-12T07:01:04;-9.78;52.95
74540;SHT31;66042;51.090;-115.340;2023-03-12T07:03:31;-9.80;53.08
74540;SHT31;66042;51.090;-115.340;2023-03-12T07:05:59;-9.85;53.13
74540;SHT31;66042;51.090;-115.340;2023-03-12T07:08:26;-9.88;53.00
74540;SHT31;66042;51.090;-115.340;2023-03-12T07:10:57;-9.91;52.74
74540;SHT31;66042;51.090;-115.340;2023-03-12T07:13:28;-9.96;52.78
74540;SHT31;66042;51.090;-115.340;2023-03-12T07:15:55;-9.98;52.77
74540;SHT31;66042;51.090;-115.340;2023-03-12T07:18:22;-10.01;52.80
74540;SHT31;66042;51.090;-115.340;2023-03-12T07:20:50;-10.04;52.77
74540;SHT31;66042;51.090;-115.340;2023-03-12T07:23:18;-10.10;52.81
74540;SHT31;66042;51.090;-115.340;2023-03-12T07:25:46;-10.16;52.88
74540;SHT31;66042;51.090;-115.340;2023-03-12T07:28:13;-10.21;52.81
74540;SHT31;66042;51.090;-115.340;2023-03-12T07:30:42;-10.22;52.99
74540;SHT31;66042;51.090;-115.340;2023-03-12T07:33:16;-10.23;53.04
74540;SHT31;66042;51.090;-115.340;2023-03-12T07:35:46;-10.28;53.09
74540;SHT31;66042;51.090;-115.340;2023-03-12T07:38:14;-10.34;53.18
74540;SHT31;66042;51.090;-115.340;2023-03-12T07:40:41;-10.36;53.16
74540;SHT31;66042;51.090;-115.340;2023-03-12T07:43:08;-10.38;53.17
74540;SHT31;66042;51.090;-115.340;2023-03-12T07:45:37;-10.45;53.15
74540;SHT31;66042;51.090;-115.340;2023-03-12T07:48:05;-10.46;53.14
74540;SHT31;66042;51.090;-115.340;2023-03-12T07:50:33;-10.51;52.90
74540;SHT31;66042;51.090;-115.340;2023-03-12T07:53:01;-10.63;52.86
74540;SHT31;66042;51.090;-115.340;2023-03-12T07:55:30;-10.65;52.93
74540;SHT31;66042;51.090;-115.340;2023-03-12T07:57:59;-10.65;53.03
74540;SHT31;66042;51.090;-115.340;2023-03-12T08:00:27;-10.67;53.18
74540;SHT31;66042;51.090;-115.340;2023-03-12T08:02:55;-10.69;53.26
74540;SHT31;66042;51.090;-115.340;2023-03-12T08:05:22;-10.69;53.23
74540;SHT31;66042;51.090;-115.340;2023-03-12T08:07:52;-10.70;53.28
74540;SHT31;66042;51.090;-115.340;2023-03-12T08:10:19;-10.74;53.25
74540;SHT31;66042;51.090;-115.340;2023-03-12T08:12:47;-10.77;53.30
74540;SHT31;66042;51.090;-115.340;2023-03-12T08:15:14;-10.80;53.22
74540;SHT31;66042;51.090;-115.340;2023-03-12T08:17:42;-10.85;53.20
74540;SHT31;66042;51.090;-115.340;2023-03-12T08:20:09;-10.86;53.13
74540;SHT31;66042;51.090;-115.340;2023-03-12T08:22:37;-10.86;53.06
74540;SHT31;66042;51.090;-115.340;2023-03-12T08:25:06;-10.92;52.91
74540;SHT31;66042;51.090;-115.340;2023-03-12T08:27:33;-10.93;52.81
74540;SHT31;66042;51.090;-115.340;2023-03-12T08:30:01;-10.88;52.59
74540;SHT31;66042;51.090;-115.340;2023-03-12T08:32:30;-10.88;52.59
74540;SHT31;66042;51.090;-115.340;2023-03-12T08:34:57;-10.94;52.67
74540;SHT31;66042;51.090;-115.340;2023-03-12T08:37:24;-11.00;52.70
74540;SHT31;66042;51.090;-115.340;2023-03-12T08:39:52;-10.97;52.63
74540;SHT31;66042;51.090;-115.340;2023-03-12T08:42:19;-10.96;52.52
74540;SHT31;66042;51.090;-115.340;2023-03-12T08:44:45;-10.97;52.40
74540;SHT31;66042;51.090;-115.340;2023-03-12T08:47:13;-11.00;52.21
74540;SHT31;66042;51.090;-115.340;2023-03-12T08:49:40;-11.01;52.11
74540;SHT31;66042;51.090;-115.340;2023-03-12T08:52:07;-10.99;52.24
74540;SHT31;66042;51.090;-115.340;2023-03-12T08:54:34;-10.98;52.38
74540;SHT31;66042;51.090;-115.340;2023-03-12T08:57:01;-11.00;52.42
74540;SHT31;66042;51.090;-115.340;2023-03-12T08:59:28;-11.04;52.25
74540;SHT31;66042;51.090;-115.340;2023-03-12T09:01:55;-11.07;52.19
74540;SHT31;66042;51.090;-115.340;2023-03-12T09:04:22;-11.08;52.04
74540;SHT31;66042;51.090;-115.340;2023-03-12T09:06:49;-11.09;52.05
74540;SHT31;66042;51.090;-115.340;2023-03-12T09:09:16;-11.10;52.12
74540;SHT31;66042;51.090;-115.340;2023-03-12T09:11:43;-11.11;52.09
74540;SHT31;66042;51.090;-115.340;2023-03-12T09:14:11;-11.18;52.12
74540;SHT31;66042;51.090;-115.340;2023-03-12T09:16:37;-11.18;52.07
74540;SHT31;66042;51.090;-115.340;2023-03-12T09:19:04;-11.18;51.91
74540;SHT31;66042;51.090;-115.340;2023-03-12T09:21:31;-11.20;52.05
74540;SHT31;66042;51.090;-115.340;2023-03-12T09:23:58;-11.21;52.26
74540;SHT31;66042;51.090;-115.340;2023-03-12T09:26:25;-11.27;52.08
74540;SHT31;66042;51.090;-115.340;2023-03-12T09:28:52;-11.36;52.21
74540;SHT31;66042;51.090;-115.340;2023-03-12T09:31:21;-11.34;52.21
74540;SHT31;66042;51.090;-115.340;2023-03-12T09:33:48;-11.36;52.13
74540;SHT31;66042;51.090;-115.340;2023-03-12T09:36:16;-11.35;52.03
74540;SHT31;66042;51.090;-115.340;2023-03-12T09:38:43;-11.35;52.06
74540;SHT31;66042;51.090;-115.340;2023-03-12T09:41:17;-11.36;52.08
74540;SHT31;66042;51.090;-115.340;2023-03-12T09:43:51;-11.36;52.01
74540;SHT31;66042;51.090;-115.340;2023-03-12T09:49:45;-11.38;52.11
74540;SHT31;66042;51.090;-115.340;2023-03-12T09:52:32;-11.37;51.96
74540;SHT31;66042;51.090;-115.340;2023-03-12T09:55:22;-11.39;51.84
74540;SHT31;66042;51.090;-115.340;2023-03-12T09:57:50;-11.41;51.95
74540;SHT31;66042;51.090;-115.340;2023-03-12T10:00:19;-11.43;51.92
74540;SHT31;66042;51.090;-115.340;2023-03-12T10:23:33;-11.57;51.68
74540;SHT31;66042;51.090;-115.340;2023-03-12T10:26:21;-11.61;51.61
74540;SHT31;66042;51.090;-115.340;2023-03-12T10:29:14;-11.66;51.63
74540;SHT31;66042;51.090;-115.340;2023-03-12T10:32:06;-11.71;51.70
74540;SHT31;66042;51.090;-115.340;2023-03-12T10:40:21;-11.80;52.01
74540;SHT31;66042;51.090;-115.340;2023-03-12T10:42:51;-11.85;51.99
74540;SHT31;66042;51.090;-115.340;2023-03-12T10:48:18;-11.90;52.05
74540;SHT31;66042;51.090;-115.340;2023-03-12T10:50:59;-11.88;51.99
74540;SHT31;66042;51.090;-115.340;2023-03-12T10:53:36;-11.88;51.80
74540;SHT31;66042;51.090;-115.340;2023-03-12T10:56:08;-11.92;51.78
74540;SHT31;66042;51.090;-115.340;2023-03-12T10:58:43;-11.94;51.99
74540;SHT31;66042;51.090;-115.340;2023-03-12T11:01:18;-11.96;52.09
74540;SHT31;66042;51.090;-115.340;2023-03-12T11:03:52;-11.96;52.17
74540;SHT31;66042;51.090;-115.340;2023-03-12T11:12:35;-11.97;52.17
74540;SHT31;66042;51.090;-115.340;2023-03-12T11:15:21;-11.96;52.23
74540;SHT31;66042;51.090;-115.340;2023-03-12T11:18:17;-11.96;52.22
74540;SHT31;66042;51.090;-115.340;2023-03-12T11:20:50;-11.97;52.10
74540;SHT31;66042;51.090;-115.340;2023-03-12T11:23:42;-11.96;52.04
74540;SHT31;66042;51.090;-115.340;2023-03-12T11:26:30;-11.93;52.00
74540;SHT31;66042;51.090;-115.340;2023-03-12T11:34:55;-11.99;52.31
74540;SHT31;66042;51.090;-115.340;2023-03-12T11:49:08;-12.08;52.27
74540;SHT31;66042;51.090;-115.340;2023-03-12T11:55:56;-12.17;52.50
74540;SHT31;66042;51.090;-115.340;2023-03-12T12:01:36;-12.11;52.29
74540;SHT31;66042;51.090;-115.340;2023-03-12T12:07:45;-12.14;52.54
74540;SHT31;66042;51.090;-115.340;2023-03-12T12:22:01;-12.25;52.81
74540;SHT31;66042;51.090;-115.340;2023-03-12T12:30:58;-12.25;52.72
74540;SHT31;66042;51.090;-115.340;2023-03-12T12:40:09;-12.32;52.89
74540;SHT31;66042;51.090;-115.340;2023-03-12T12:46:03;-12.26;52.77
74540;SHT31;66042;51.090;-115.340;2023-03-12T12:51:13;-12.26;52.73
74540;SHT31;66042;51.090;-115.340;2023-03-12T13:00:02;-12.22;53.11
74540;SHT31;66042;51.090;-115.340;2023-03-12T13:02:53;-12.25;53.15
74540;SHT31;66042;51.090;-115.340;2023-03-12T13:06:05;-12.26;53.08
74540;SHT31;66042;51.090;-115.340;2023-03-12T13:13:43;-12.26;52.86
74540;SHT31;66042;51.090;-115.340;2023-03-12T13:16:39;-12.29;52.83
74540;SHT31;66042;51.090;-115.340;2023-03-12T13:24:58;-12.39;52.55
74540;SHT31;66042;51.090;-115.340;2023-03-12T13:27:30;-12.44;52.55
74540;SHT31;66042;51.090;-115.340;2023-03-12T13:38:05;-12.57;52.81
74540;SHT31;66042;51.090;-115.340;2023-03-12T13:40:51;-12.57;53.03
74540;SHT31;66042;51.090;-115.340;2023-03-12T13:48:47;-12.59;53.45
74540;SHT31;66042;51.090;-115.340;2023-03-12T13:51:22;-12.59;53.29
74540;SHT31;66042;51.090;-115.340;2023-03-12T13:54:32;-12.58;53.22
74540;SHT31;66042;51.090;-115.340;2023-03-12T13:57:02;-12.57;53.30
74540;SHT31;66042;51.090;-115.340;2023-03-12T13:59:51;-12.54;53.18
74540;SHT31;66042;51.090;-115.340;2023-03-12T14:02:29;-12.53;53.10
74540;SHT31;66042;51.090;-115.340;2023-03-12T14:05:08;-12.54;53.10
74540;SHT31;66042;51.090;-115.340;2023-03-12T14:11:07;-12.53;53.20
74540;SHT31;66042;51.090;-115.340;2023-03-12T14:13:45;-12.51;53.19
74540;SHT31;66042;51.090;-115.340;2023-03-12T14:16:56;-12.51;53.05
74540;SHT31;66042;51.090;-115.340;2023-03-12T14:19:27;-12.51;53.08
74540;SHT31;66042;51.090;-115.340;2023-03-12T14:22:01;-12.48;53.12
74540;SHT31;66042;51.090;-115.340;2023-03-12T14:27:14;-12.46;53.27
74540;SHT31;66042;51.090;-115.340;2023-03-12T14:29:54;-12.42;53.05
74540;SHT31;66042;51.090;-115.340;2023-03-12T14:32:48;-12.42;53.04
74540;SHT31;66042;51.090;-115.340;2023-03-12T14:35:27;-12.40;53.08
74540;SHT31;66042;51.090;-115.340;2023-03-12T14:38:04;-12.38;53.11
74540;SHT31;66042;51.090;-115.340;2023-03-12T14:40:56;-12.35;53.20
74540;SHT31;66042;51.090;-115.340;2023-03-12T14:44:03;-12.33;53.28
74540;SHT31;66042;51.090;-115.340;2023-03-12T14:46:54;-12.31;53.22
74540;SHT31;66042;51.090;-115.340;2023-03-12T14:49:26;-12.31;53.15
74540;SHT31;66042;51.090;-115.340;2023-03-12T14:51:55;-12.33;53.23
74540;SHT31;66042;51.090;-115.340;2023-03-12T14:54:24;-12.30;53.13
74540;SHT31;66042;51.090;-115.340;2023-03-12T14:56:53;-12.28;53.10
74540;SHT31;66042;51.090;-115.340;2023-03-12T14:59:24;-12.30;53.22
74540;SHT31;66042;51.090;-115.340;2023-03-12T15:02:00;-12.30;53.47
74540;SHT31;66042;51.090;-115.340;2023-03-12T15:04:38;-12.28;53.54
74540;SHT31;66042;51.090;-115.340;2023-03-12T15:07:08;-12.24;53.58
74540;SHT31;66042;51.090;-115.340;2023-03-12T15:09:41;-12.19;53.78
74540;SHT31;66042;51.090;-115.340;2023-03-12T15:12:18;-12.14;53.76
74540;SHT31;66042;51.090;-115.340;2023-03-12T15:15:07;-12.12;53.61
74540;SHT31;66042;51.090;-115.340;2023-03-12T15:18:04;-12.07;53.66
74540;SHT31;66042;51.090;-115.340;2023-03-12T15:20:38;-12.00;53.82
74540;SHT31;66042;51.090;-115.340;2023-03-12T15:23:06;-11.97;54.00
74540;SHT31;66042;51.090;-115.340;2023-03-12T15:25:37;-11.96;54.21
74540;SHT31;66042;51.090;-115.340;2023-03-12T15:28:07;-11.92;54.60
74540;SHT31;66042;51.090;-115.340;2023-03-12T15:30:39;-11.89;54.92
74540;SHT31;66042;51.090;-115.340;2023-03-12T15:35:37;-11.76;55.19
74540;SHT31;66042;51.090;-115.340;2023-03-12T15:38:15;-11.71;55.49
74540;SHT31;66042;51.090;-115.340;2023-03-12T15:40:48;-11.63;55.86
74540;SHT31;66042;51.090;-115.340;2023-03-12T15:43:19;-11.55;56.16
74540;SHT31;66042;51.090;-115.340;2023-03-12T15:46:09;-11.47;56.30
74540;SHT31;66042;51.090;-115.340;2023-03-12T15:48:38;-11.37;56.48
74540;SHT31;66042;51.090;-115.340;2023-03-12T15:51:25;-11.27;56.57
74540;SHT31;66042;51.090;-115.340;2023-03-12T15:56:42;-11.07;56.92
74540;SHT31;66042;51.090;-115.340;2023-03-12T16:01:45;-10.85;56.94
74540;SHT31;66042;51.090;-115.340;2023-03-12T16:04:22;-10.74;57.00
74540;SHT31;66042;51.090;-115.340;2023-03-12T16:06:50;-10.62;57.05
74540;SHT31;66042;51.090;-115.340;2023-03-12T16:09:21;-10.53;57.12
74540;SHT31;66042;51.090;-115.340;2023-03-12T16:11:52;-10.44;57.21
74540;SHT31;66042;51.090;-115.340;2023-03-12T16:16:58;-10.19;57.15
74540;SHT31;66042;51.090;-115.340;2023-03-12T16:19:27;-10.08;57.17
74540;SHT31;66042;51.090;-115.340;2023-03-12T16:21:58;-10.00;57.62
74540;SHT31;66042;51.090;-115.340;2023-03-12T16:24:25;-9.93;58.03
74540;SHT31;66042;51.090;-115.340;2023-03-12T16:26:53;-9.87;58.57
74540;SHT31;66042;51.090;-115.340;2023-03-12T16:29:30;-9.78;58.78
74540;SHT31;66042;51.090;-115.340;2023-03-12T16:32:00;-9.74;58.99
74540;SHT31;66042;51.090;-115.340;2023-03-12T16:34:38;-9.69;59.44
74540;SHT31;66042;51.090;-115.340;2023-03-12T16:37:08;-9.60;59.50
74540;SHT31;66042;51.090;-115.340;2023-03-12T16:39:37;-9.49;59.51
74540;SHT31;66042;51.090;-115.340;2023-03-12T16:42:05;-9.40;59.43
74540;SHT31;66042;51.090;-115.340;2023-03-12T16:44:43;-9.28;59.46
74540;SHT31;66042;51.090;-115.340;2023-03-12T16:47:11;-9.18;59.38
74540;SHT31;66042;51.090;-115.340;2023-03-12T16:49:39;-9.06;59.38
74540;SHT31;66042;51.090;-115.340;2023-03-12T16:52:15;-8.95;59.46
74540;SHT31;66042;51.090;-115.340;2023-03-12T16:54:46;-8.84;59.13
74540;SHT31;66042;51.090;-115.340;2023-03-12T16:57:24;-8.72;59.42
74540;SHT31;66042;51.090;-115.340;2023-03-12T17:00:00;-8.60;59.65
74540;SHT31;66042;51.090;-115.340;2023-03-12T17:02:32;-8.48;59.90
74540;SHT31;66042;51.090;-115.340;2023-03-12T17:05:00;-8.38;59.78
74540;SHT31;66042;51.090;-115.340;2023-03-12T17:07:28;-8.27;59.48
74540;SHT31;66042;51.090;-115.340;2023-03-12T17:09:55;-8.16;59.53
74540;SHT31;66042;51.090;-115.340;2023-03-12T17:12:30;-8.04;59.20
74540;SHT31;66042;51.090;-115.340;2023-03-12T17:15:01;-7.93;58.68
74540;SHT31;66042;51.090;-115.340;2023-03-12T17:17:34;-7.82;58.50
74540;SHT31;66042;51.090;-115.340;2023-03-12T17:20:00;-7.71;58.44
74540;SHT31;66042;51.090;-115.340;2023-03-12T17:22:31;-7.61;58.44
74540;SHT31;66042;51.090;-115.340;2023-03-12T17:24:58;-7.50;58.23
74540;SHT31;66042;51.090;-115.340;2023-03-12T17:27:26;-7.40;58.18
74540;SHT31;66042;51.090;-115.340;2023-03-12T17:29:53;-7.29;58.22
74540;SHT31;66042;51.090;-115.340;2023-03-12T17:32:20;-7.18;58.36
74540;SHT31;66042;51.090;-115.340;2023-03-12T17:34:52;-7.04;58.43
74540;SHT31;66042;51.090;-115.340;2023-03-12T17:37:27;-6.92;58.40